Time;durP1;ratioP1;P1;durP2;ratioP2;P2;SDS_P1;SDS_P2;PMS_P1;PMS_P2;Temp;Humidity;BMP_temperature;BMP_pressure;BME280_temperature;BME280_humidity;BME280_pressure;Samples;Min_cycle;Max_cycle;Signal;HPM_P1;HPM_P2
2024/01/07 00:01:03;;;;;;;18.80;9.88;;;-0.30;99.90;;;1.25;100.00;100907.13;4951198;28;20035;-80
2024/01/07 00:03:29;;;;;;;19.75;10.52;;;-0.40;99.90;;;1.38;100.00;100914.03;4950401;29;20392;-80
2024/01/07 00:05:54;;;;;;;20.25;11.20;;;-0.30;99.90;;;1.38;100.00;100914.03;4951572;28;20023;-81
2024/01/07 00:08:21;;;;;;;18.67;11.02;;;-0.40;99.90;;;1.41;100.00;100914.56;4950839;28;20114;-81
2024/01/07 00:10:46;;;;;;;20.10;10.57;;;-0.30;99.90;;;1.17;100.00;100914.25;4965769;28;20491;-80
2024/01/07 00:13:12;;;;;;;22.02;10.32;;;-0.40;99.90;;;1.18;100.00;100915.94;4950279;29;20098;-80
2024/01/07 00:15:38;;;;;;;16.92;10.18;;;-0.40;99.90;;;1.36;100.00;100919.53;4944661;28;20059;-81
2024/01/07 00:18:04;;;;;;;18.60;10.00;;;-0.40;99.90;;;1.42;100.00;100921.63;4950490;28;20043;-80
2024/01/07 00:20:30;;;;;;;22.02;10.40;;;-0.40;99.90;;;1.21;100.00;100919.19;4950261;28;20047;-80
2024/01/07 00:22:56;;;;;;;18.67;9.85;;;-0.40;99.90;;;1.13;100.00;100921.78;4950652;28;20130;-80
2024/01/07 00:25:22;;;;;;;17.92;10.07;;;-0.40;99.90;;;1.33;100.00;100927.06;4950618;28;20391;-81
2024/01/07 00:27:47;;;;;;;20.25;11.20;;;-0.40;99.90;;;1.20;100.00;100922.88;4950739;28;20035;-79
2024/01/07 00:30:13;;;;;;;18.67;10.93;;;-0.40;99.90;;;1.13;100.00;100928.00;4949163;28;20047;-80
2024/01/07 00:32:39;;;;;;;22.15;10.15;;;-0.50;99.90;;;0.91;100.00;100934.59;4966794;28;20027;-80
2024/01/07 00:35:05;;;;;;;22.92;11.02;;;-0.50;99.90;;;1.03;100.00;100935.25;4954390;28;20086;-80
2024/01/07 00:37:31;;;;;;;20.92;10.57;;;-0.50;99.90;;;0.94;100.00;100928.91;4952261;28;20042;-80
2024/01/07 00:39:57;;;;;;;20.98;11.73;;;-0.60;99.90;;;1.22;100.00;100933.50;4954344;28;20047;-79
2024/01/07 00:42:22;;;;;;;23.17;11.75;;;-0.60;99.90;;;1.09;100.00;100936.53;4954490;28;20514;-80
2024/01/07 00:44:49;;;;;;;22.35;11.30;;;-0.50;99.90;;;1.13;100.00;100938.75;4968878;28;20024;-79
2024/01/07 00:47:16;;;;;;;25.60;12.25;;;-0.50;99.90;;;1.11;100.00;100946.09;4952414;29;20046;-80
2024/01/07 00:49:42;;;;;;;21.10;11.45;;;-0.50;99.90;;;1.11;100.00;100940.72;4953164;29;20047;-80
2024/01/07 00:52:08;;;;;;;21.70;11.68;;;-0.60;99.90;;;1.01;100.00;100953.38;4968760;28;20136;-79
2024/01/07 00:54:34;;;;;;;24.52;12.45;;;-0.60;99.90;;;1.19;100.00;100945.38;4953944;28;20558;-81
2024/01/07 00:57:00;;;;;;;23.52;12.13;;;-0.60;99.90;;;1.07;100.00;100954.63;4953978;28;20031;-80
2024/01/07 00:59:28;;;;;;;23.88;12.10;;;-0.60;99.90;;;0.95;100.00;100954.78;4954456;28;20085;-79
2024/01/07 01:01:54;;;;;;;21.70;11.38;;;-0.60;99.90;;;0.82;100.00;100963.16;4939589;29;20067;-80
2024/01/07 01:04:20;;;;;;;23.00;11.38;;;-0.70;99.90;;;0.79;100.00;100967.97;4952249;29;20042;-79
2024/01/07 01:06:46;;;;;;;23.65;11.30;;;-0.70;99.90;;;0.93;100.00;100970.22;4953573;28;20045;-78
2024/01/07 01:09:12;;;;;;;20.95;11.57;;;-0.70;99.90;;;0.97;100.00;100976.16;4953663;29;20051;-82
2024/01/07 01:11:38;;;;;;;25.10;11.80;;;-0.70;99.90;;;0.90;100.00;100977.72;4946639;29;20094;-79
2024/01/07 01:14:04;;;;;;;22.38;11.82;;;-0.70;99.90;;;1.15;100.00;100987.81;4952502;28;20035;-79
2024/01/07 01:16:29;;;;;;;22.65;10.75;;;-0.70;99.90;;;0.92;100.00;100978.41;4952516;29;20469;-80
2024/01/07 01:18:55;;;;;;;20.65;10.50;;;-0.60;99.90;;;0.86;100.00;100993.28;4953744;28;20039;-79
2024/01/07 01:21:21;;;;;;;18.35;9.90;;;-0.70;99.90;;;0.77;100.00;100988.75;4947479;28;20495;-80
2024/01/07 01:23:47;;;;;;;18.95;9.65;;;-0.70;99.90;;;0.88;100.00;100996.69;4953054;28;20043;-80
2024/01/07 01:26:13;;;;;;;20.13;9.30;;;-0.70;99.90;;;0.99;100.00;100990.28;4953730;28;20498;-79
2024/01/07 01:28:39;;;;;;;19.60;9.80;;;-0.70;99.90;;;1.13;100.00;100997.03;4954203;28;20035;-79
2024/01/07 01:31:05;;;;;;;18.90;9.70;;;-0.70;99.90;;;0.91;100.00;100987.47;4953103;28;20101;-79
2024/01/07 01:33:31;;;;;;;22.25;10.93;;;-0.70;99.90;;;0.86;100.00;100991.44;4962827;28;20074;-80
2024/01/07 01:35:56;;;;;;;21.60;10.70;;;-0.70;99.90;;;0.85;100.00;100999.66;4948953;28;20044;-80
2024/01/07 01:38:22;;;;;;;23.92;10.98;;;-0.70;99.90;;;1.00;100.00;101008.94;4968131;28;20035;-80
2024/01/07 01:40:55;;;;;;;20.98;10.60;;;-0.70;99.90;;;0.90;100.00;101010.81;4952761;28;20038;-80
2024/01/07 01:43:28;;;;;;;19.77;9.70;;;-0.70;99.90;;;0.96;100.00;101007.53;4967840;28;20042;-80
2024/01/07 01:45:56;;;;;;;21.63;10.00;;;-0.70;99.90;;;0.84;100.00;101019.44;4963366;28;20474;-80
2024/01/07 01:48:24;;;;;;;21.10;10.18;;;-0.70;99.90;;;0.77;100.00;101023.69;4953274;28;20390;-80
2024/01/07 01:50:50;;;;;;;22.45;10.32;;;-0.70;99.90;;;0.82;100.00;101024.94;4953051;28;20062;-80
2024/01/07 01:53:16;;;;;;;19.58;9.18;;;-0.80;99.90;;;0.76;100.00;101030.03;4944746;29;20051;-79
2024/01/07 01:55:43;;;;;;;18.33;10.18;;;-0.80;99.90;;;0.62;100.00;101037.56;4940549;28;20090;-79
2024/01/07 01:58:09;;;;;;;22.55;10.13;;;-0.80;99.90;;;0.79;100.00;101029.75;4951626;28;20097;-80
2024/01/07 02:00:35;;;;;;;18.55;9.02;;;-0.80;99.90;;;0.67;100.00;101037.97;4951568;29;20054;-79
2024/01/07 02:03:01;;;;;;;19.17;9.90;;;-0.80;99.90;;;0.63;100.00;101041.94;4951133;28;20387;-80
2024/01/07 02:05:27;;;;;;;20.50;8.75;;;-0.80;99.90;;;0.67;100.00;101047.88;4952660;28;20039;-79
2024/01/07 02:07:56;;;;;;;19.17;8.93;;;-0.90;99.90;;;0.32;100.00;101054.63;4951172;29;20391;-80
2024/01/07 02:10:22;;;;;;;18.05;7.72;;;-0.90;99.90;;;0.23;100.00;101051.81;4952654;29;20157;-79
2024/01/07 02:12:48;;;;;;;14.80;8.25;;;-1.00;99.90;;;0.32;100.00;101050.13;4949204;28;20174;-79
2024/01/07 02:15:15;;;;;;;17.38;8.55;;;-1.00;99.90;;;0.22;100.00;101052.81;4952192;28;20031;-79
2024/01/07 02:17:41;;;;;;;18.10;8.32;;;-1.00;99.90;;;0.13;100.00;101056.28;4966802;28;20122;-80
2024/01/07 02:20:07;;;;;;;17.98;9.05;;;-1.00;99.90;;;0.32;100.00;101063.56;4951399;29;20495;-79
2024/01/07 02:22:33;;;;;;;18.48;7.90;;;-1.10;99.90;;;0.34;100.00;101071.44;4944293;28;20035;-78
2024/01/07 02:24:59;;;;;;;15.65;7.32;;;-1.10;99.90;;;0.32;100.00;101066.22;4951062;28;20063;-78
2024/01/07 02:27:24;;;;;;;14.13;7.57;;;-1.10;99.90;;;0.33;100.00;101072.44;4963989;28;20403;-78
2024/01/07 02:29:50;;;;;;;14.18;8.82;;;-1.10;99.90;;;0.41;100.00;101073.44;4950506;28;20031;-78
2024/01/07 02:32:16;;;;;;;15.32;7.50;;;-1.10;99.90;;;0.36;100.00;101077.53;4950401;28;20043;-78
2024/01/07 02:34:42;;;;;;;17.55;8.35;;;-1.10;99.90;;;0.41;100.00;101076.13;4966733;28;20398;-78
2024/01/07 02:37:07;;;;;;;15.25;7.75;;;-1.10;99.90;;;0.34;100.00;101075.00;4951141;28;20027;-78
2024/01/07 02:39:33;;;;;;;14.85;7.70;;;-1.00;99.90;;;0.37;100.00;101076.53;4953879;28;20108;-78
2024/01/07 02:41:59;;;;;;;15.52;7.28;;;-1.10;99.90;;;0.49;100.00;101085.31;4950843;29;20035;-78
2024/01/07 02:44:25;;;;;;;18.83;8.00;;;-1.10;99.90;;;0.41;100.00;101089.56;4951398;28;20420;-79
2024/01/07 02:46:50;;;;;;;15.93;8.55;;;-1.00;99.90;;;0.60;100.00;101090.56;4961765;28;20044;-79
2024/01/07 02:49:16;;;;;;;15.35;7.90;;;-1.00;99.90;;;0.68;100.00;101093.38;4949831;29;20447;-79
2024/01/07 02:51:44;;;;;;;15.02;7.63;;;-1.00;99.90;;;0.58;100.00;101095.22;4963067;28;20031;-79
2024/01/07 02:54:09;;;;;;;18.35;7.93;;;-1.00;99.90;;;0.46;100.00;101107.06;4950262;29;20146;-79
2024/01/07 02:56:35;;;;;;;15.43;7.95;;;-1.00;99.90;;;0.49;100.00;101107.66;4961944;28;20035;-78
2024/01/07 02:59:01;;;;;;;13.57;7.63;;;-1.10;99.90;;;0.62;100.00;101107.38;4964959;28;20479;-79
2024/01/07 03:01:26;;;;;;;14.98;7.85;;;-1.10;99.90;;;0.37;100.00;101100.69;4943394;28;20043;-78
2024/01/07 03:03:52;;;;;;;12.50;7.28;;;-1.10;99.90;;;0.57;100.00;101109.66;4950696;28;20475;-78
2024/01/07 03:06:18;;;;;;;14.15;7.68;;;-1.10;99.90;;;0.39;100.00;101107.63;4950163;28;20039;-78
2024/01/07 03:08:43;;;;;;;14.63;7.28;;;-1.10;99.90;;;0.14;100.00;101109.84;4948446;28;20044;-78
2024/01/07 03:11:09;;;;;;;13.05;6.60;;;-1.10;99.90;;;0.31;100.00;101110.16;4951517;28;20039;-78
2024/01/07 03:13:35;;;;;;;11.75;6.63;;;-1.10;99.90;;;0.66;100.00;101114.16;4951688;28;20039;-80
2024/01/07 03:16:00;;;;;;;15.07;7.03;;;-1.10;99.90;;;0.43;100.00;101111.72;4950560;28;20045;-81
2024/01/07 03:18:29;;;;;;;13.25;6.30;;;-1.10;99.90;;;0.30;100.00;101118.34;4950167;28;20505;-78
2024/01/07 03:20:55;;;;;;;16.45;7.03;;;-1.20;99.90;;;0.29;100.00;101114.84;4966225;28;20038;-79
2024/01/07 03:23:21;;;;;;;13.50;6.85;;;-1.10;99.90;;;0.40;100.00;101120.06;4951667;28;20065;-79
2024/01/07 03:25:47;;;;;;;14.48;7.43;;;-1.20;99.90;;;0.56;100.00;101122.22;4951193;28;20554;-79
2024/01/07 03:28:12;;;;;;;12.75;6.55;;;-1.20;99.90;;;0.24;100.00;101125.09;4966169;28;20074;-79
2024/01/07 03:30:38;;;;;;;11.35;6.68;;;-1.20;99.90;;;0.26;100.00;101131.19;4951357;28;20062;-79
2024/01/07 03:33:04;;;;;;;10.93;6.13;;;-1.20;99.90;;;0.34;100.00;101133.19;4951553;28;20046;-79
2024/01/07 03:35:30;;;;;;;12.48;6.78;;;-1.20;99.90;;;0.34;100.00;101133.19;4951290;28;20046;-79
2024/01/07 03:37:55;;;;;;;11.73;6.28;;;-1.20;99.90;;;0.56;100.00;101134.81;4949413;28;20031;-79
2024/01/07 03:40:22;;;;;;;12.55;6.53;;;-1.20;99.90;;;0.69;100.00;101140.75;4951324;28;20403;-79
2024/01/07 03:42:47;;;;;;;13.65;6.22;;;-1.20;99.90;;;0.57;100.00;101144.56;4949970;29;20043;-79
2024/01/07 03:45:13;;;;;;;11.38;5.97;;;-1.10;99.90;;;0.33;100.00;101135.03;4966118;28;20042;-79
2024/01/07 03:47:39;;;;;;;11.27;5.18;;;-1.20;99.90;;;0.14;100.00;101152.78;4950711;28;20035;-79
2024/01/07 03:50:05;;;;;;;9.88;5.88;;;-1.20;99.90;;;0.21;100.00;101147.72;4946463;29;20071;-79
2024/01/07 03:52:31;;;;;;;10.95;6.60;;;-1.20;99.90;;;0.32;100.00;101153.94;4948718;29;20494;-78
2024/01/07 03:54:56;;;;;;;12.35;6.35;;;-1.20;99.90;;;0.28;100.00;101156.91;4949609;28;20035;-79
2024/01/07 03:57:22;;;;;;;9.00;5.00;;;-1.20;99.90;;;0.47;100.00;101154.41;4949910;29;20070;-79
2024/01/07 03:59:48;;;;;;;11.05;5.50;;;-1.20;99.90;;;0.23;100.00;101161.84;4951454;28;20039;-79
2024/01/07 04:02:16;;;;;;;11.07;5.80;;;-1.20;99.90;;;0.49;100.00;101164.03;4950962;29;20407;-79
2024/01/07 04:04:42;;;;;;;10.68;5.28;;;-1.20;99.90;;;0.47;100.00;101173.19;4949782;28;20406;-80
2024/01/07 04:07:08;;;;;;;9.02;5.18;;;-1.20;99.90;;;0.28;100.00;101177.56;4958222;28;20058;-79
2024/01/07 04:09:33;;;;;;;10.93;4.95;;;-1.20;99.90;;;0.20;100.00;101182.72;4931062;29;20039;-79
2024/01/07 04:11:59;;;;;;;10.35;5.03;;;-1.20;99.90;;;0.13;100.00;101179.72;4956892;28;20503;-79
2024/01/07 04:14:27;;;;;;;12.32;5.32;;;-1.30;99.90;;;0.23;100.00;101185.13;4954746;28;20047;-79
2024/01/07 04:16:52;;;;;;;;;;;-1.30;99.90;;;0.43;100.00;101186.91;4954422;28;20133;-79
2024/01/07 04:19:18;;;;;;;8.07;4.10;;;-1.30;99.90;;;0.24;100.00;101189.53;4954671;28;20380;-79
2024/01/07 04:21:47;;;;;;;7.43;4.35;;;-1.30;99.90;;;0.29;100.00;101192.66;4954604;28;20398;-79
2024/01/07 04:24:13;;;;;;;7.60;4.05;;;-1.30;99.90;;;-0.08;100.00;101183.34;4968238;28;20039;-79
2024/01/07 04:26:38;;;;;;;9.23;4.68;;;-1.30;99.90;;;0.28;100.00;101189.13;4954187;28;20046;-79
2024/01/07 04:29:04;;;;;;;7.32;3.53;;;-1.30;99.90;;;0.10;100.00;101188.91;4954789;28;20098;-79
2024/01/07 04:31:30;;;;;;;9.68;3.88;;;-1.30;99.90;;;0.39;100.00;101192.69;4953054;29;20042;-80
2024/01/07 04:33:55;;;;;;;7.28;3.63;;;-1.30;99.90;;;0.21;100.00;101204.09;4954058;28;20043;-79
2024/01/07 04:36:21;;;;;;;8.40;3.25;;;-1.30;99.90;;;0.05;100.00;101209.94;4953101;29;20047;-80
2024/01/07 04:38:47;;;;;;;5.10;3.03;;;-1.30;99.90;;;0.35;100.00;101210.91;4954398;28;20039;-80
2024/01/07 04:41:12;;;;;;;6.45;3.40;;;-1.30;99.90;;;0.27;100.00;101200.84;4954545;28;20044;-79
2024/01/07 04:43:38;;;;;;;7.40;3.53;;;-1.30;99.90;;;0.20;100.00;101206.88;4953527;28;20039;-79
2024/01/07 04:46:04;;;;;;;6.85;2.97;;;-1.30;99.90;;;0.03;100.00;101206.56;4953706;28;20039;-80
2024/01/07 04:48:30;;;;;;;5.82;3.05;;;-1.30;99.90;;;0.21;100.00;101209.44;4954108;28;20050;-79
2024/01/07 04:50:55;;;;;;;5.93;2.90;;;-1.30;99.90;;;0.18;100.00;101216.91;4953547;28;20035;-80
2024/01/07 04:53:21;;;;;;;4.93;2.88;;;-1.30;99.90;;;0.13;100.00;101225.34;4953564;28;20046;-79
2024/01/07 04:55:47;;;;;;;6.88;2.95;;;-1.30;99.90;;;0.12;100.00;101227.19;4953642;29;20039;-80
2024/01/07 04:58:12;;;;;;;5.65;2.88;;;-1.30;99.90;;;0.31;100.00;101227.41;4954262;28;20039;-80
2024/01/07 05:00:38;;;;;;;7.13;3.38;;;-1.30;99.90;;;0.35;100.00;101232.38;4968633;28;20031;-80
2024/01/07 05:03:04;;;;;;;6.22;2.95;;;-1.30;99.90;;;0.06;100.00;101238.47;4954004;28;20051;-80
2024/01/07 05:05:30;;;;;;;6.70;3.10;;;-1.30;99.90;;;-0.03;100.00;101248.16;4952504;28;20027;-79
2024/01/07 05:07:55;;;;;;;6.30;2.95;;;-1.40;99.90;;;-0.04;100.00;101245.59;4953460;28;20090;-80
2024/01/07 05:10:21;;;;;;;7.28;3.60;;;-1.40;99.90;;;0.11;100.00;101249.66;4953868;28;20401;-79
2024/01/07 05:12:47;;;;;;;6.75;3.00;;;-1.30;99.90;;;0.30;100.00;101253.41;4956566;28;20544;-80
2024/01/07 05:15:12;;;;;;;6.88;3.20;;;-1.30;99.90;;;0.27;100.00;101259.06;4965208;28;20058;-80
2024/01/07 05:17:38;;;;;;;7.28;3.35;;;-1.30;99.90;;;0.27;100.00;101259.91;4945143;28;20510;-80
2024/01/07 05:20:06;;;;;;;5.88;3.03;;;-1.30;99.90;;;0.18;100.00;101270.59;4951483;29;20125;-79
2024/01/07 05:22:31;;;;;;;6.03;3.20;;;-1.40;99.90;;;0.00;100.00;101268.53;4953475;28;20043;-80
2024/01/07 05:24:57;;;;;;;7.13;3.05;;;-1.40;99.90;;;-0.13;100.00;101263.38;4953060;28;20031;-80
2024/01/07 05:27:23;;;;;;;5.20;2.53;;;-1.40;99.90;;;-0.11;100.00;101272.13;4953735;28;20043;-80
2024/01/07 05:29:49;;;;;;;6.43;3.00;;;-1.40;99.90;;;0.04;100.00;101283.38;4953609;28;20043;-80
2024/01/07 05:32:15;;;;;;;8.30;3.13;;;-1.40;99.90;;;0.08;100.00;101270.53;4953073;28;20049;-81
2024/01/07 05:34:41;;;;;;;5.75;3.03;;;-1.40;99.90;;;0.22;100.00;101288.97;4948661;28;20075;-80
2024/01/07 05:37:07;;;;;;;6.75;2.90;;;-1.40;99.90;;;0.08;100.00;101284.81;4967918;28;20051;-80
2024/01/07 05:39:32;;;;;;;5.93;2.67;;;-1.50;99.90;;;0.12;100.00;101294.28;4952794;28;20055;-81
2024/01/07 05:41:58;;;;;;;6.43;2.85;;;-1.50;99.90;;;0.10;100.00;101290.03;4947689;28;20375;-80
2024/01/07 05:44:24;;;;;;;7.57;3.03;;;-1.50;99.90;;;-0.25;100.00;101297.44;4953204;28;20036;-80
2024/01/07 05:46:49;;;;;;;7.53;3.00;;;-1.60;99.90;;;-0.39;100.00;101305.78;4952884;28;20447;-80
2024/01/07 05:49:15;;;;;;;5.45;2.40;;;-1.60;99.90;;;-0.24;100.00;101301.81;4967435;28;20050;-81
2024/01/07 05:51:41;;;;;;;5.85;2.70;;;-1.60;99.90;;;-0.12;100.00;101294.56;4953674;28;20394;-81
2024/01/07 05:54:07;;;;;;;6.47;3.13;;;-1.70;99.90;;;-0.14;100.00;101291.13;4957121;28;20055;-81
2024/01/07 05:56:32;;;;;;;6.35;3.33;;;-1.70;99.90;;;-0.13;100.00;101308.09;4947325;29;20035;-80
2024/01/07 05:58:58;;;;;;;6.80;2.70;;;-1.70;99.90;;;-0.15;100.00;101313.59;4952805;28;20054;-80
2024/01/07 06:01:24;;;;;;;6.03;3.10;;;-1.70;99.90;;;-0.20;100.00;101315.81;4952280;28;20047;-79
2024/01/07 06:03:49;;;;;;;5.32;2.90;;;-1.80;99.90;;;-0.16;100.00;101322.63;4951086;28;20051;-80
2024/01/07 06:06:15;;;;;;;6.97;3.00;;;-1.80;99.90;;;-0.48;100.00;101326.16;4952370;28;20587;-80
2024/01/07 06:08:42;;;;;;;7.63;3.13;;;-1.80;99.90;;;-0.33;100.00;101327.59;4952815;28;20054;-80
2024/01/07 06:11:08;;;;;;;5.55;2.85;;;-1.90;99.90;;;-0.33;100.00;101330.28;4952727;28;20047;-80
2024/01/07 06:13:34;;;;;;;6.15;3.03;;;-2.00;99.90;;;-0.40;100.00;101336.25;4967865;28;20051;-80
2024/01/07 06:15:59;;;;;;;5.38;2.80;;;-2.10;99.90;;;-0.61;100.00;101345.09;4952708;28;20422;-81
2024/01/07 06:18:25;;;;;;;6.05;2.88;;;-2.20;99.90;;;-0.88;100.00;101346.38;4950000;28;20514;-80
2024/01/07 06:20:51;;;;;;;5.28;2.80;;;-2.30;99.90;;;-0.82;100.00;101358.44;4952416;28;20034;-80
2024/01/07 06:23:17;;;;;;;5.53;2.90;;;-2.30;99.90;;;-1.02;100.00;101363.56;4952593;28;20450;-81
2024/01/07 06:25:43;;;;;;;4.90;2.75;;;-2.40;99.90;;;-1.09;100.00;101359.69;4952216;29;20166;-81
2024/01/07 06:28:10;;;;;;;8.73;3.55;;;-2.40;99.90;;;-0.99;100.00;101363.31;4952286;28;20035;-81
2024/01/07 06:30:36;;;;;;;6.43;3.13;;;-2.50;99.90;;;-1.08;100.00;101366.75;4950401;28;20465;-81
2024/01/07 06:33:01;;;;;;;6.60;3.03;;;-2.50;99.90;;;-1.02;100.00;101369.78;4952584;28;20117;-80
2024/01/07 06:35:27;;;;;;;5.20;2.80;;;-2.40;99.90;;;-0.97;100.00;101371.25;4949492;28;20058;-81
2024/01/07 06:37:53;;;;;;;7.63;3.05;;;-2.50;99.90;;;-1.02;100.00;101379.66;4946629;28;20054;-81
2024/01/07 06:40:20;;;;;;;4.50;2.83;;;-2.40;99.90;;;-1.08;100.00;101378.31;4969581;28;20023;-82
2024/01/07 06:42:47;;;;;;;10.52;3.40;;;-2.40;99.90;;;-1.09;100.00;101384.63;4956598;28;20047;-81
2024/01/07 06:45:14;;;;;;;5.35;2.88;;;-2.40;99.90;;;-1.24;100.00;101386.69;4951464;28;20042;-82
2024/01/07 06:47:40;;;;;;;9.13;3.15;;;-2.40;99.90;;;-1.10;100.00;101404.34;4946930;28;20111;-81
2024/01/07 06:50:07;;;;;;;6.75;3.22;;;-2.50;99.90;;;-1.08;100.00;101401.56;4949631;28;20127;-81
2024/01/07 06:52:32;;;;;;;6.40;3.63;;;-2.50;99.90;;;-1.17;100.00;101404.00;4950915;28;20055;-82
2024/01/07 06:54:58;;;;;;;8.02;2.92;;;-2.60;99.90;;;-1.31;100.00;101407.78;4947318;28;20043;-82
2024/01/07 06:57:24;;;;;;;5.78;3.05;;;-2.60;99.90;;;-1.46;100.00;101411.63;4948535;28;20498;-82
2024/01/07 06:59:49;;;;;;;6.45;3.10;;;-2.70;99.90;;;-1.38;100.00;101419.09;4951129;28;20098;-82
2024/01/07 07:02:15;;;;;;;5.22;3.20;;;-2.70;99.90;;;-1.36;100.00;101426.00;4951182;28;20047;-82
2024/01/07 07:04:41;;;;;;;7.57;3.15;;;-2.70;99.90;;;-1.47;100.00;101426.84;4949786;29;20524;-82
2024/01/07 07:07:06;;;;;;;4.97;2.95;;;-2.80;99.90;;;-1.40;100.00;101448.63;4949968;28;20043;-82
2024/01/07 07:09:34;;;;;;;7.22;3.22;;;-2.80;99.90;;;-1.23;100.00;101443.81;4963635;28;20572;-82
2024/01/07 07:12:00;;;;;;;8.98;3.78;;;-2.80;99.90;;;-1.20;100.00;101449.75;4948304;28;20043;-82
2024/01/07 07:14:25;;;;;;;7.10;3.13;;;-2.80;99.90;;;-1.40;100.00;101451.31;4965162;28;20094;-88
2024/01/07 07:16:51;;;;;;;5.93;3.13;;;-2.80;99.90;;;-1.48;100.00;101449.22;4962986;28;20035;-80
2024/01/07 07:19:17;;;;;;;6.22;2.67;;;-2.80;99.90;;;-1.35;100.00;101465.19;4933874;28;20054;-81
2024/01/07 07:21:43;;;;;;;6.35;3.05;;;-2.90;99.90;;;-1.25;100.00;101461.81;4944403;28;20088;-80
2024/01/07 07:24:10;;;;;;;7.43;2.90;;;-2.80;99.90;;;-1.25;100.00;101469.84;4958064;28;20035;-80
2024/01/07 07:26:40;;;;;;;6.22;3.40;;;-2.80;99.90;;;-1.25;100.00;101453.78;4952633;28;20498;-79
2024/01/07 07:29:09;;;;;;;7.22;3.42;;;-2.70;99.90;;;-1.11;100.00;101456.22;4951662;28;20090;-79
2024/01/07 07:31:35;;;;;;;6.18;3.38;;;-2.70;99.90;;;-1.11;100.00;101469.63;4951691;28;20122;-79
2024/01/07 07:34:04;;;;;;;8.45;3.65;;;-2.60;99.90;;;-1.21;100.00;101480.19;4944774;28;20035;-81
2024/01/07 07:36:30;;;;;;;6.60;3.20;;;-2.60;99.90;;;-1.12;100.00;101467.06;4948027;29;20405;-81
2024/01/07 07:38:56;;;;;;;6.82;3.20;;;-2.50;99.90;;;-0.97;100.00;101486.44;4947858;28;20035;-80
2024/01/07 07:41:21;;;;;;;7.38;3.20;;;-2.50;99.90;;;-1.12;100.00;101486.66;4966350;28;20050;-81
2024/01/07 07:43:47;;;;;;;6.70;3.60;;;-2.50;99.90;;;-1.03;100.00;101488.63;4948058;28;20035;-81
2024/01/07 07:46:13;;;;;;;8.90;3.70;;;-2.40;99.90;;;-0.88;100.00;101501.78;4953512;29;20043;-82
2024/01/07 07:48:39;;;;;;;9.35;4.10;;;-2.40;99.90;;;-0.89;100.00;101503.63;4955084;28;20050;-81
2024/01/07 07:51:05;;;;;;;6.95;3.90;;;-2.30;99.90;;;-1.03;100.00;101507.38;4945482;29;20047;-82
2024/01/07 07:53:31;;;;;;;6.68;3.80;;;-2.30;99.90;;;-0.68;100.00;101510.09;4955363;28;20058;-80
2024/01/07 07:55:56;;;;;;;8.10;4.03;;;-2.20;99.90;;;-0.76;100.00;101506.19;4954059;28;20380;-80
2024/01/07 07:58:22;;;;;;;8.65;4.10;;;-2.20;99.90;;;-0.79;100.00;101514.47;4949740;28;20050;-80
2024/01/07 08:00:48;;;;;;;7.70;3.83;;;-2.20;99.90;;;-0.52;100.00;101515.94;4945970;28;20047;-81
2024/01/07 08:03:13;;;;;;;9.18;4.43;;;-2.10;99.90;;;-0.49;100.00;101517.50;4956068;28;20046;-81
2024/01/07 08:05:41;;;;;;;6.18;3.53;;;-2.10;99.90;;;-0.22;100.00;101519.81;4925402;29;20391;-81
2024/01/07 08:08:07;;;;;;;7.90;3.90;;;-2.00;99.90;;;-0.35;100.00;101544.06;4969317;28;20065;-82
2024/01/07 08:10:35;;;;;;;7.32;3.80;;;-1.90;99.90;;;-0.33;100.00;101535.88;4954571;28;20039;-82
2024/01/07 08:13:00;;;;;;;6.28;3.78;;;-1.90;99.90;;;-0.55;100.00;101537.59;4953232;28;20058;-82
2024/01/07 08:15:26;;;;;;;6.75;3.88;;;-1.90;99.90;;;-0.40;100.00;101532.00;4954272;29;20043;-82
2024/01/07 08:17:52;;;;;;;7.15;3.75;;;-1.90;99.90;;;-0.35;100.00;101528.00;4955283;28;20042;-82
2024/01/07 08:20:19;;;;;;;7.95;4.28;;;-1.90;99.90;;;-0.05;100.00;101539.88;4955013;29;20054;-82
2024/01/07 08:22:44;;;;;;;7.80;4.15;;;-1.80;99.90;;;-0.21;100.00;101551.00;4954903;28;20049;-82
2024/01/07 08:25:11;;;;;;;7.68;3.97;;;-1.80;99.90;;;-0.10;100.00;101551.97;4954860;28;20443;-82
2024/01/07 08:27:37;;;;;;;6.28;3.63;;;-1.80;99.90;;;-0.02;100.00;101547.69;4954827;28;20066;-82
2024/01/07 08:30:04;;;;;;;7.10;3.78;;;-1.70;99.90;;;-0.05;100.00;101561.34;4969802;28;20130;-82
2024/01/07 08:32:29;;;;;;;7.38;3.50;;;-1.70;99.90;;;0.01;100.00;101551.97;4969425;28;20038;-82
2024/01/07 08:34:55;;;;;;;7.22;3.38;;;-1.70;99.90;;;0.02;100.00;101560.84;4968004;28;20396;-82
2024/01/07 08:37:21;;;;;;;6.97;3.00;;;-1.60;99.90;;;0.10;100.00;101558.38;4955039;28;20050;-82
2024/01/07 08:39:46;;;;;;;6.05;3.20;;;-1.60;99.90;;;0.19;100.00;101565.69;4954578;28;20058;-82
2024/01/07 08:42:12;;;;;;;5.85;2.88;;;-1.50;99.90;;;0.26;100.00;101564.19;4945878;29;20043;-82
2024/01/07 08:44:39;;;;;;;6.05;3.40;;;-1.50;99.90;;;0.14;100.00;101576.78;4954652;28;20482;-82
2024/01/07 08:47:05;;;;;;;6.15;3.40;;;-1.50;99.90;;;0.13;100.00;101572.41;4948525;29;20040;-82
2024/01/07 08:49:33;;;;;;;6.63;3.22;;;-1.40;99.90;;;0.49;100.00;101574.00;4954114;29;20165;-83
2024/01/07 08:51:59;;;;;;;6.70;3.20;;;-1.40;99.90;;;0.10;100.00;101580.72;4954893;28;20036;-83
2024/01/07 08:54:25;;;;;;;6.40;3.20;;;-1.40;99.90;;;0.04;100.00;101570.50;4953525;28;20129;-83
2024/01/07 08:56:51;;;;;;;6.55;3.00;;;-1.40;99.90;;;0.12;100.00;101584.13;4947742;29;20032;-83
2024/01/07 08:59:16;;;;;;;5.22;3.17;;;-1.50;99.90;;;0.30;100.00;101591.66;4954236;28;20062;-83
2024/01/07 09:01:42;;;;;;;5.43;3.03;;;-1.40;99.90;;;0.14;100.00;101582.16;4954600;28;20087;-83
2024/01/07 09:04:08;;;;;;;6.65;3.60;;;-1.40;99.90;;;0.41;100.00;101590.78;4954927;28;20101;-83
2024/01/07 09:06:34;;;;;;;5.75;2.95;;;-1.40;99.90;;;0.11;100.00;101582.41;4953171;29;20029;-83
2024/01/07 09:08:59;;;;;;;5.93;3.30;;;-1.40;99.90;;;0.16;100.00;101595.47;4969093;28;20459;-82
2024/01/07 09:11:25;;;;;;;5.03;2.63;;;-1.40;99.90;;;-0.11;100.00;101585.13;4947416;28;20043;-82
2024/01/07 09:13:51;;;;;;;6.18;3.20;;;-1.50;99.90;;;0.01;100.00;101600.25;4954420;28;20039;-82
2024/01/07 09:16:16;;;;;;;5.00;2.65;;;-1.40;99.90;;;0.01;100.00;101611.00;4936810;29;20050;-83
2024/01/07 09:18:44;;;;;;;5.47;2.97;;;-1.40;99.90;;;0.06;100.00;101607.91;4954758;28;20063;-83
2024/01/07 09:21:09;;;;;;;6.20;2.78;;;-1.50;99.90;;;0.49;100.00;101608.91;4953492;28;20251;-82
2024/01/07 09:23:36;;;;;;;6.90;2.97;;;-1.40;99.90;;;0.11;100.00;101603.03;4954568;29;20546;-82
2024/01/07 09:26:02;;;;;;;6.20;3.40;;;-1.30;99.90;;;0.37;100.00;101608.09;4954288;28;20043;-82
2024/01/07 09:28:27;;;;;;;6.40;3.33;;;-1.30;99.90;;;0.05;100.00;101609.75;4952759;28;20039;-82
2024/01/07 09:30:53;;;;;;;6.25;3.10;;;-1.30;99.90;;;-0.47;100.00;101609.38;4952559;28;20090;-81
2024/01/07 09:33:20;;;;;;;6.88;3.08;;;-1.40;99.90;;;-0.36;100.00;101627.31;4953966;28;20181;-81
2024/01/07 09:35:45;;;;;;;5.40;3.30;;;-1.40;99.90;;;0.03;100.00;101629.63;4954561;28;20090;-82
2024/01/07 09:38:11;;;;;;;8.43;3.72;;;-1.40;99.90;;;0.28;100.00;101620.47;4954429;28;20165;-82
2024/01/07 09:40:39;;;;;;;9.15;3.10;;;-1.30;99.90;;;-0.06;100.00;101629.41;4952969;29;20047;-81
2024/01/07 09:43:05;;;;;;;8.00;3.40;;;-1.40;99.90;;;0.42;100.00;101627.38;4968809;28;20462;-82
2024/01/07 09:45:31;;;;;;;7.00;3.17;;;-1.30;99.90;;;0.23;100.00;101630.69;4954156;28;20035;-82
2024/01/07 09:47:57;;;;;;;6.25;3.10;;;-1.30;99.90;;;0.51;100.00;101631.97;4953866;28;20074;-82
2024/01/07 09:50:23;;;;;;;6.55;3.10;;;-1.20;99.90;;;0.49;100.00;101639.31;4953584;28;20047;-81
2024/01/07 09:52:57;;;;;;;9.73;3.58;;;-1.20;99.90;;;0.68;100.00;101621.69;4952029;29;20378;-82
2024/01/07 09:55:33;;;;;;;4.82;2.78;;;-1.10;99.90;;;0.52;100.00;101632.81;4953600;28;20114;-82
2024/01/07 09:57:59;;;;;;;6.03;2.90;;;-1.10;99.90;;;0.40;100.00;101637.41;4953284;29;20372;-82
2024/01/07 10:00:27;;;;;;;5.68;2.95;;;-1.10;99.90;;;0.82;100.00;101636.66;4953781;28;20039;-82
2024/01/07 10:02:53;;;;;;;;;;;-1.00;99.90;;;0.67;100.00;101631.56;4954037;29;20035;-82